LELL

Details ICAO LELL (QSA)
Name Sabadell
Region Spain
Timezone Europe/Madrid (UTC+2.0)
Plans Departing 113
Arriving 39
Stats Elevation 465 ft / 142 m (AMSL)
Location 41.520977° 2.104912°
Runways 1
Magnetic Variation 0.870° E
Sunrise 2018-05-23 04:27:06 UTC / 2018-05-23 06:27:06 Local
Sunset 2018-05-23 19:12:25 UTC / 2018-05-23 21:12:25 Local
Advertisement - Login to hide

Runways

ID Width Length Bearing (true) Bearing (mag) Surface Threshold Offset Overrun Length
13 98 ft / 30 m 2,956 ft / 901 m 127.50° 126.63° Asphalt 0 ft / 0 m 0 ft / 0 m
31 98 ft / 30 m 2,956 ft / 901 m 307.50° 306.63° Asphalt 0 ft / 0 m 0 ft / 0 m

Map

Weather


0- 5 10 15 20 25 30 35+ Temperature / ° C

Clouds and Precipitation
Forecast for 2018-05-23 12:00 UTC. Updated 4 hours ago

Ground ~20,000 ft ~40,000 ft Winds

METAR

LELL 231500Z 15009KT 120V200 CAVOK 25/12 Q1016

TAF

TAF LELL 231400Z 2315/2415 18010KT 9999 FEW030 TX26/2413Z TN13/2406Z PROB30 TEMPO 2315/2318 FEW040TCU BECMG 2319/2321 VRB03KT BECMG 2410/2412 14010KT

Frequencies

Ground 121.90 MHz TWR
Tower 120.80 MHz TWR
Warning: Do not use this data for real-world aviation or navigation. No guarantee of current accuracy is given.